createdAt,value
2022-12-25T00:00:42.240Z,13.80
2022-12-25T00:03:09.491Z,12.93
2022-12-25T00:05:38.706Z,13.30
2022-12-25T00:08:06.241Z,12.77
2022-12-25T00:10:33.709Z,12.50
2022-12-25T00:13:00.897Z,13.33
2022-12-25T00:15:28.274Z,12.87
2022-12-25T00:17:55.450Z,12.77
2022-12-25T00:20:22.606Z,12.23
2022-12-25T00:22:49.789Z,11.63
2022-12-25T00:25:17.060Z,12.40
2022-12-25T00:27:44.288Z,11.60
2022-12-25T00:30:11.625Z,11.20
2022-12-25T00:32:38.816Z,11.17
2022-12-25T00:35:06.309Z,10.73
2022-12-25T00:37:33.500Z,11.10
2022-12-25T00:40:00.662Z,11.07
2022-12-25T00:42:28.490Z,10.87
2022-12-25T00:44:55.678Z,10.27
2022-12-25T00:47:22.914Z,11.33
2022-12-25T00:49:50.214Z,10.23
2022-12-25T00:52:17.355Z,10.73
2022-12-25T00:54:44.606Z,11.03
2022-12-25T00:57:11.805Z,10.53
2022-12-25T00:59:38.945Z,11.37
2022-12-25T01:02:24.807Z,10.40
2022-12-25T01:04:53.151Z,10.60
2022-12-25T01:07:20.656Z,10.77
2022-12-25T01:10:07.348Z,10.77
2022-12-25T01:12:35.568Z,10.97
2022-12-25T01:15:02.794Z,11.10
2022-12-25T01:17:29.985Z,10.70
2022-12-25T01:19:57.231Z,10.67
2022-12-25T01:22:24.403Z,10.70
2022-12-25T01:24:51.592Z,10.20
2022-12-25T01:27:18.797Z,10.53
2022-12-25T01:29:46.753Z,9.73
2022-12-25T01:32:14.346Z,9.53
2022-12-25T01:34:41.591Z,9.37
2022-12-25T01:37:08.823Z,9.80
2022-12-25T01:39:36.012Z,9.20
2022-12-25T01:42:03.535Z,9.67
2022-12-25T01:44:36.660Z,9.20
2022-12-25T01:47:05.023Z,9.20
2022-12-25T01:49:33.827Z,9.33
2022-12-25T01:52:10.643Z,8.60
2022-12-25T01:54:42.509Z,9.50
2022-12-25T01:57:12.677Z,9.27
2022-12-25T01:59:40.440Z,9.10
2022-12-25T02:02:08.098Z,9.00
2022-12-25T02:04:40.984Z,9.13
2022-12-25T02:07:14.837Z,9.87
2022-12-25T02:09:42.610Z,10.37
2022-12-25T02:12:11.670Z,8.73
2022-12-25T02:14:38.939Z,11.03
2022-12-25T02:17:18.224Z,11.20
2022-12-25T02:20:04.123Z,11.27
2022-12-25T02:22:41.735Z,12.90
2022-12-25T02:25:11.535Z,13.50
2022-12-25T02:27:44.640Z,12.77
2022-12-25T02:30:12.321Z,11.77
2022-12-25T02:32:42.563Z,12.40
2022-12-25T02:35:12.808Z,12.97
2022-12-25T02:37:58.807Z,12.83
2022-12-25T02:40:29.482Z,11.40
2022-12-25T02:43:17.527Z,10.57
2022-12-25T02:46:06.363Z,11.77
2022-12-25T02:48:55.117Z,11.23
2022-12-25T02:51:42.264Z,10.47
2022-12-25T02:54:31.747Z,10.70
2022-12-25T02:57:18.855Z,11.20
2022-12-25T03:00:06.650Z,10.73
2022-12-25T03:02:53.355Z,10.53
2022-12-25T03:05:41.310Z,11.13
2022-12-25T03:08:13.120Z,9.37
2022-12-25T03:11:02.628Z,11.27
2022-12-25T03:13:32.824Z,11.53
2022-12-25T03:16:18.616Z,9.37
2022-12-25T03:18:45.970Z,10.83
2022-12-25T03:21:32.158Z,12.47
2022-12-25T03:24:20.322Z,12.27
2022-12-25T03:26:56.651Z,13.40
2022-12-25T03:29:42.458Z,13.63
2022-12-25T03:32:28.360Z,13.50
2022-12-25T03:35:22.897Z,12.17
2022-12-25T03:38:22.281Z,12.43
2022-12-25T03:41:20.986Z,12.17
2022-12-25T03:44:13.522Z,11.47
2022-12-25T03:47:05.129Z,10.90
2022-12-25T03:50:11.052Z,12.00
2022-12-25T03:52:57.776Z,12.00
2022-12-25T03:55:44.616Z,11.77
2022-12-25T03:58:40.950Z,11.70
2022-12-25T04:01:27.195Z,10.80
2022-12-25T04:04:13.440Z,10.57
2022-12-25T04:06:59.946Z,10.53
2022-12-25T04:09:46.021Z,10.93
2022-12-25T04:12:31.912Z,9.37
2022-12-25T04:15:17.887Z,10.13
2022-12-25T04:18:11.196Z,10.13
2022-12-25T04:20:57.458Z,10.10
2022-12-25T04:23:43.689Z,10.97
2022-12-25T04:26:29.341Z,10.60
2022-12-25T04:29:15.449Z,10.60
2022-12-25T04:32:01.164Z,10.73
2022-12-25T04:34:47.097Z,10.23
2022-12-25T04:37:14.299Z,9.90
2022-12-25T04:39:41.618Z,10.83
2022-12-25T04:42:08.782Z,9.77
2022-12-25T04:44:35.922Z,9.03
2022-12-25T04:47:09.155Z,9.57
2022-12-25T04:49:38.282Z,9.37
2022-12-25T04:52:05.554Z,9.30
2022-12-25T04:54:32.770Z,10.17
2022-12-25T04:57:00.177Z,9.33
2022-12-25T04:59:27.347Z,9.30
2022-12-25T05:01:54.604Z,9.07
2022-12-25T05:04:21.961Z,9.17
2022-12-25T05:06:49.109Z,8.93
2022-12-25T05:09:16.291Z,9.13
2022-12-25T05:11:43.487Z,8.30
2022-12-25T05:14:10.634Z,8.33
2022-12-25T05:16:37.911Z,8.40
2022-12-25T05:19:05.071Z,8.37
2022-12-25T05:21:32.210Z,8.37
2022-12-25T05:23:59.367Z,7.60
2022-12-25T05:26:27.060Z,7.73
2022-12-25T05:28:55.046Z,8.03
2022-12-25T05:31:22.312Z,7.57
2022-12-25T05:33:53.029Z,7.23
2022-12-25T05:36:20.398Z,7.27
2022-12-25T05:38:47.552Z,7.03
2022-12-25T05:41:14.760Z,7.00
2022-12-25T05:43:42.055Z,7.20
2022-12-25T05:46:10.584Z,6.00
2022-12-25T05:48:38.642Z,6.63
2022-12-25T05:51:10.240Z,6.37
2022-12-25T05:53:37.510Z,6.20
2022-12-25T05:56:06.017Z,6.43
2022-12-25T05:58:33.841Z,6.63
2022-12-25T06:01:01.087Z,6.50
2022-12-25T06:03:28.584Z,6.60
2022-12-25T06:05:55.934Z,7.33
2022-12-25T06:08:23.096Z,6.70
2022-12-25T06:10:50.260Z,6.80
2022-12-25T06:13:17.567Z,7.07
2022-12-25T06:15:44.739Z,7.00
2022-12-25T06:18:11.906Z,6.70
2022-12-25T06:20:41.232Z,7.00
2022-12-25T06:23:08.600Z,6.77
2022-12-25T06:25:38.825Z,7.00
2022-12-25T06:28:05.993Z,7.13
2022-12-25T06:30:34.023Z,7.13
2022-12-25T06:33:01.232Z,7.13
2022-12-25T06:35:28.460Z,7.33
2022-12-25T06:37:56.697Z,6.77
2022-12-25T06:40:23.874Z,6.77
2022-12-25T06:42:52.644Z,7.40
2022-12-25T06:45:19.859Z,7.67
2022-12-25T06:47:47.060Z,6.83
2022-12-25T06:50:15.199Z,6.80
2022-12-25T06:52:42.341Z,7.50
2022-12-25T06:55:09.905Z,7.40
2022-12-25T06:57:37.186Z,6.67
2022-12-25T07:00:04.968Z,7.47
2022-12-25T07:02:33.648Z,6.87
2022-12-25T07:05:01.416Z,6.67
2022-12-25T07:07:28.615Z,7.30
2022-12-25T07:09:55.990Z,6.50
2022-12-25T07:12:24.277Z,6.80
2022-12-25T07:14:54.086Z,7.17
2022-12-25T07:17:21.894Z,8.23
2022-12-25T07:19:49.391Z,7.33
2022-12-25T07:22:16.900Z,7.30
2022-12-25T07:24:44.103Z,7.27
2022-12-25T07:27:11.438Z,7.13
2022-12-25T07:29:38.635Z,8.00
2022-12-25T07:32:06.171Z,7.63
2022-12-25T07:34:33.550Z,9.03
2022-12-25T07:37:00.851Z,9.87
2022-12-25T07:39:28.090Z,8.10
2022-12-25T07:41:55.305Z,8.70
2022-12-25T07:44:22.522Z,8.00
2022-12-25T07:46:49.714Z,8.07
2022-12-25T07:49:16.861Z,8.17
2022-12-25T07:51:44.046Z,9.00
2022-12-25T07:54:11.245Z,8.10
2022-12-25T07:56:38.411Z,8.37
2022-12-25T07:59:05.616Z,8.50
2022-12-25T08:01:32.859Z,8.03
2022-12-25T08:04:01.353Z,8.80
2022-12-25T08:06:32.777Z,8.47
2022-12-25T08:09:07.099Z,8.47
2022-12-25T08:11:34.329Z,8.70
2022-12-25T08:14:01.542Z,9.27
2022-12-25T08:16:28.827Z,9.00
2022-12-25T08:18:56.002Z,9.07
2022-12-25T08:21:23.154Z,9.97
2022-12-25T08:23:50.343Z,9.67
2022-12-25T08:26:19.532Z,9.63
2022-12-25T08:28:46.820Z,8.60
2022-12-25T08:31:17.143Z,8.80
2022-12-25T08:33:44.456Z,7.83
2022-12-25T08:36:12.358Z,7.40
2022-12-25T08:38:40.072Z,7.40
2022-12-25T08:41:07.560Z,7.10
2022-12-25T08:43:34.852Z,9.67
2022-12-25T08:46:02.072Z,9.50
2022-12-25T08:48:29.674Z,8.67
2022-12-25T08:50:56.893Z,7.47
2022-12-25T08:53:24.140Z,7.70
2022-12-25T08:55:57.275Z,7.63
2022-12-25T08:58:24.546Z,8.17
2022-12-25T09:00:51.705Z,7.80
2022-12-25T09:03:19.086Z,9.43
2022-12-25T09:05:46.937Z,9.17
2022-12-25T09:08:14.179Z,11.37
2022-12-25T09:10:42.326Z,12.37
2022-12-25T09:13:10.390Z,15.47
2022-12-25T09:15:39.092Z,16.67
2022-12-25T09:18:06.653Z,18.03
2022-12-25T09:20:33.952Z,13.67
2022-12-25T09:23:01.162Z,13.40
2022-12-25T09:25:28.392Z,12.90
2022-12-25T09:27:56.795Z,11.50
2022-12-25T09:30:24.083Z,11.13
2022-12-25T09:32:51.321Z,12.33
2022-12-25T09:35:19.012Z,11.43
2022-12-25T09:37:46.264Z,10.70
2022-12-25T09:40:18.873Z,10.83
2022-12-25T09:42:46.447Z,10.13
2022-12-25T09:45:24.973Z,10.23
2022-12-25T09:47:58.861Z,10.13
2022-12-25T09:50:44.886Z,10.93
2022-12-25T09:53:26.258Z,8.37
2022-12-25T09:56:04.766Z,8.20
2022-12-25T09:58:33.749Z,10.00
2022-12-25T10:01:15.275Z,9.00
2022-12-25T10:03:49.013Z,7.67
2022-12-25T10:06:19.061Z,7.70
2022-12-25T10:09:04.432Z,9.30
2022-12-25T10:11:43.489Z,8.10
2022-12-25T10:14:19.545Z,12.07
2022-12-25T10:16:54.346Z,9.87
2022-12-25T10:19:35.841Z,8.03
2022-12-25T10:22:04.585Z,7.23
2022-12-25T10:24:31.771Z,7.03
2022-12-25T10:27:00.496Z,8.30
2022-12-25T10:29:31.212Z,7.60
2022-12-25T10:31:58.550Z,7.87
2022-12-25T10:34:27.718Z,9.50
2022-12-25T10:36:55.194Z,10.10
2022-12-25T10:39:24.699Z,8.97
2022-12-25T10:41:51.867Z,9.40
2022-12-25T10:44:20.712Z,10.23
2022-12-25T10:46:51.688Z,10.10
2022-12-25T10:49:21.341Z,9.03
2022-12-25T10:51:48.757Z,8.63
2022-12-25T10:54:22.004Z,9.33
2022-12-25T10:56:55.891Z,8.53
2022-12-25T10:59:23.273Z,9.33
2022-12-25T11:01:55.030Z,9.87
2022-12-25T11:04:25.295Z,9.73
2022-12-25T11:06:58.657Z,10.03
2022-12-25T11:09:26.205Z,10.77
2022-12-25T11:11:53.493Z,11.80
2022-12-25T11:14:22.728Z,11.50
2022-12-25T11:16:50.533Z,10.17
2022-12-25T11:19:31.074Z,10.77
2022-12-25T11:21:59.627Z,12.43
2022-12-25T11:24:28.373Z,18.17
2022-12-25T11:26:59.908Z,17.47
2022-12-25T11:29:45.757Z,16.30
2022-12-25T11:32:22.063Z,12.50
2022-12-25T11:34:49.788Z,14.47
2022-12-25T11:37:39.242Z,13.60
2022-12-25T11:40:07.483Z,13.87
2022-12-25T11:42:38.848Z,16.50
2022-12-25T11:45:07.383Z,15.73
2022-12-25T11:47:37.662Z,15.83
2022-12-25T11:50:14.955Z,14.77
2022-12-25T11:52:46.141Z,16.20
2022-12-25T11:55:21.558Z,15.50
2022-12-25T11:57:52.182Z,16.83
2022-12-25T12:00:20.008Z,17.57
2022-12-25T12:02:51.997Z,17.60
2022-12-25T12:05:25.595Z,17.70
2022-12-25T12:08:00.487Z,18.07
2022-12-25T12:10:27.611Z,16.93
2022-12-25T12:12:57.645Z,16.73
2022-12-25T12:15:36.783Z,16.83
2022-12-25T12:18:10.900Z,19.00
2022-12-25T12:20:38.250Z,18.40
2022-12-25T12:23:11.919Z,15.77
2022-12-25T12:25:40.593Z,14.90
2022-12-25T12:28:13.862Z,13.93
2022-12-25T12:30:41.015Z,13.37
2022-12-25T12:33:08.650Z,13.27
2022-12-25T12:35:39.769Z,13.47
2022-12-25T12:38:17.625Z,15.63
2022-12-25T12:40:55.631Z,15.47
2022-12-25T12:43:43.193Z,16.60
2022-12-25T12:46:16.739Z,15.53
2022-12-25T12:48:45.851Z,14.90
2022-12-25T12:51:14.308Z,14.63
2022-12-25T12:53:42.321Z,15.37
2022-12-25T12:56:19.908Z,16.13
2022-12-25T12:58:51.201Z,15.37
2022-12-25T13:01:27.418Z,13.90
2022-12-25T13:04:01.047Z,14.00
2022-12-25T13:06:34.479Z,13.33
2022-12-25T13:09:10.179Z,13.30
2022-12-25T13:11:40.883Z,16.30
2022-12-25T13:14:14.366Z,16.73
2022-12-25T13:16:42.392Z,14.70
2022-12-25T13:19:13.580Z,13.17
2022-12-25T13:21:40.939Z,12.17
2022-12-25T13:24:19.427Z,13.40
2022-12-25T13:26:46.905Z,14.53
2022-12-25T13:29:24.674Z,13.23
2022-12-25T13:31:51.911Z,15.23
2022-12-25T13:34:19.103Z,14.63
2022-12-25T13:36:46.239Z,13.73
2022-12-25T13:39:16.524Z,12.97
2022-12-25T13:42:06.260Z,12.47
2022-12-25T13:44:53.690Z,15.70
2022-12-25T13:47:40.804Z,15.30
2022-12-25T13:50:21.345Z,15.90
2022-12-25T13:52:48.744Z,17.30
2022-12-25T13:55:16.075Z,16.87
2022-12-25T13:57:43.265Z,16.53
2022-12-25T14:00:22.003Z,14.87
2022-12-25T14:02:49.404Z,14.83
2022-12-25T14:05:27.773Z,14.47
2022-12-25T14:07:55.827Z,15.40
2022-12-25T14:10:23.887Z,15.30
2022-12-25T14:12:51.834Z,16.97
2022-12-25T14:15:21.402Z,16.47
2022-12-25T14:17:49.564Z,15.30
2022-12-25T14:20:26.112Z,17.13
2022-12-25T14:22:57.415Z,16.37
2022-12-25T14:25:44.870Z,15.43
2022-12-25T14:28:23.230Z,16.77
2022-12-25T14:30:50.533Z,17.60
2022-12-25T14:33:24.859Z,17.23
2022-12-25T14:35:52.320Z,17.13
2022-12-25T14:38:24.921Z,15.57
2022-12-25T14:41:02.236Z,14.97
2022-12-25T14:43:30.366Z,15.23
2022-12-25T14:45:59.048Z,14.53
2022-12-25T14:48:27.571Z,14.27
2022-12-25T14:51:03.207Z,14.90
2022-12-25T14:53:50.627Z,16.10
2022-12-25T14:56:20.187Z,16.10
2022-12-25T14:58:52.392Z,15.10
2022-12-25T15:01:31.230Z,16.50
2022-12-25T15:04:24.617Z,16.30
2022-12-25T15:07:07.645Z,17.07
2022-12-25T15:09:36.892Z,17.07
2022-12-25T15:12:04.148Z,17.13
2022-12-25T15:14:31.754Z,19.77
2022-12-25T15:17:00.522Z,18.67
2022-12-25T15:19:36.513Z,17.20
2022-12-25T15:22:04.618Z,15.90
2022-12-25T15:24:31.782Z,17.33
2022-12-25T15:27:00.741Z,16.03
2022-12-25T15:30:07.425Z,17.40
2022-12-25T15:32:24.137Z,16.30
2022-12-25T15:34:52.912Z,17.17
2022-12-25T15:37:20.125Z,17.00
2022-12-25T15:39:47.434Z,16.13
2022-12-25T15:42:16.090Z,16.97
2022-12-25T15:44:43.791Z,17.67
2022-12-25T15:47:11.903Z,17.90
2022-12-25T15:49:39.495Z,18.83
2022-12-25T15:52:08.289Z,17.97
2022-12-25T15:54:35.666Z,17.73
2022-12-25T15:57:05.168Z,16.07
2022-12-25T15:59:32.811Z,19.77
2022-12-25T16:02:02.029Z,19.30
2022-12-25T16:04:31.328Z,17.53
2022-12-25T16:06:59.333Z,16.37
2022-12-25T16:09:27.631Z,19.60
2022-12-25T16:11:54.986Z,21.10
2022-12-25T16:14:22.154Z,22.93
2022-12-25T16:16:49.336Z,20.03
2022-12-25T16:19:16.560Z,20.10
2022-12-25T16:21:44.942Z,20.10
2022-12-25T16:24:12.319Z,18.33
2022-12-25T16:26:39.693Z,20.07
2022-12-25T16:29:07.657Z,18.60
2022-12-25T16:31:35.749Z,19.90
2022-12-25T16:34:03.553Z,17.10
2022-12-25T16:36:30.915Z,15.80
2022-12-25T16:38:58.089Z,16.63
2022-12-25T16:41:32.314Z,16.47
2022-12-25T16:44:00.061Z,22.07
2022-12-25T16:46:46.110Z,17.60
2022-12-25T16:49:13.331Z,17.10
2022-12-25T16:51:40.595Z,16.50
2022-12-25T16:54:07.828Z,17.17
2022-12-25T16:56:36.710Z,16.97
2022-12-25T16:59:04.034Z,17.23
2022-12-25T17:01:31.339Z,15.17
2022-12-25T17:04:01.646Z,16.30
2022-12-25T17:06:29.628Z,16.03
2022-12-25T17:08:57.827Z,16.50
2022-12-25T17:11:29.482Z,16.50
2022-12-25T17:13:57.442Z,15.60
2022-12-25T17:16:25.858Z,19.03
2022-12-25T17:18:57.254Z,18.90
2022-12-25T17:21:24.964Z,17.30
2022-12-25T17:23:56.496Z,18.33
2022-12-25T17:26:28.127Z,18.73
2022-12-25T17:28:56.352Z,18.70
2022-12-25T17:31:23.901Z,23.07
2022-12-25T17:33:51.059Z,22.73
2022-12-25T17:36:19.320Z,18.63
2022-12-25T17:38:47.550Z,21.07
2022-12-25T17:41:15.919Z,21.53
2022-12-25T17:43:45.669Z,20.07
2022-12-25T17:46:18.202Z,21.33
2022-12-25T17:48:46.176Z,20.77
2022-12-25T17:51:14.611Z,21.77
2022-12-25T17:53:42.884Z,21.93
2022-12-25T17:56:10.598Z,19.73
2022-12-25T17:58:38.337Z,21.33
2022-12-25T18:01:08.218Z,20.90
2022-12-25T18:03:36.838Z,21.07
2022-12-25T18:06:08.157Z,21.57
2022-12-25T18:08:39.328Z,21.23
2022-12-25T18:11:08.287Z,21.90
2022-12-25T18:13:35.490Z,20.77
2022-12-25T18:16:06.482Z,21.47
2022-12-25T18:18:34.333Z,21.63
2022-12-25T18:21:02.227Z,21.27
2022-12-25T18:23:29.757Z,21.20
2022-12-25T18:26:02.143Z,20.73
2022-12-25T18:28:29.455Z,20.93
2022-12-25T18:30:57.177Z,21.57
2022-12-25T18:33:24.813Z,21.23
2022-12-25T18:35:57.059Z,22.03
2022-12-25T18:38:24.237Z,23.50
2022-12-25T18:40:51.418Z,21.30
2022-12-25T18:43:18.633Z,23.33
2022-12-25T18:45:46.063Z,23.17
2022-12-25T18:48:13.311Z,23.97
2022-12-25T18:50:41.406Z,23.00
2022-12-25T18:53:08.729Z,22.97
2022-12-25T18:55:35.934Z,22.13
2022-12-25T18:58:03.251Z,22.07
2022-12-25T19:00:30.528Z,20.47
2022-12-25T19:02:59.002Z,20.80
2022-12-25T19:05:26.914Z,23.90
2022-12-25T19:07:54.150Z,21.70
2022-12-25T19:10:21.359Z,22.90
2022-12-25T19:12:48.524Z,21.20
2022-12-25T19:15:15.715Z,22.27
2022-12-25T19:17:42.883Z,22.13
2022-12-25T19:20:10.942Z,23.70
2022-12-25T19:22:38.307Z,25.43
2022-12-25T19:25:05.728Z,24.97
2022-12-25T19:27:32.918Z,24.77
2022-12-25T19:30:00.176Z,25.23
2022-12-25T19:32:27.386Z,24.10
2022-12-25T19:34:54.687Z,24.13
2022-12-25T19:37:21.879Z,23.97
2022-12-25T19:39:49.277Z,24.80
2022-12-25T19:42:16.866Z,22.97
2022-12-25T19:44:44.337Z,23.67
2022-12-25T19:47:11.686Z,23.73
2022-12-25T19:49:40.687Z,21.87
2022-12-25T19:52:08.067Z,22.83
2022-12-25T19:54:35.256Z,23.33
2022-12-25T19:57:02.452Z,22.90
2022-12-25T19:59:29.676Z,20.97
2022-12-25T20:01:56.981Z,22.90
2022-12-25T20:04:24.364Z,21.83
2022-12-25T20:06:51.532Z,21.73
2022-12-25T20:09:21.581Z,21.83
2022-12-25T20:11:49.569Z,21.30
2022-12-25T20:14:17.955Z,21.60
2022-12-25T20:16:45.348Z,20.70
2022-12-25T20:19:13.373Z,22.30
2022-12-25T20:21:40.738Z,20.43
2022-12-25T20:24:10.164Z,21.10
2022-12-25T20:26:38.135Z,21.13
2022-12-25T20:29:05.376Z,20.57
2022-12-25T20:31:34.109Z,20.53
2022-12-25T20:34:04.904Z,20.30
2022-12-25T20:36:36.736Z,18.63
2022-12-25T20:39:05.571Z,19.90
2022-12-25T20:41:33.312Z,19.63
2022-12-25T20:44:01.970Z,20.53
2022-12-25T20:46:29.423Z,19.53
2022-12-25T20:48:56.773Z,19.00
2022-12-25T20:51:24.752Z,19.43
2022-12-25T20:53:52.229Z,18.90
2022-12-25T20:56:20.806Z,19.70
2022-12-25T20:58:47.959Z,20.60
2022-12-25T21:01:17.193Z,19.27
2022-12-25T21:03:45.067Z,18.90
2022-12-25T21:06:12.817Z,20.20
2022-12-25T21:08:41.167Z,19.83
2022-12-25T21:11:09.082Z,19.40
2022-12-25T21:13:37.880Z,20.43
2022-12-25T21:16:06.121Z,19.13
2022-12-25T21:18:34.014Z,19.23
2022-12-25T21:21:05.624Z,19.63
2022-12-25T21:23:33.743Z,19.00
2022-12-25T21:26:01.316Z,19.43
2022-12-25T21:28:30.617Z,18.03
2022-12-25T21:31:02.378Z,19.20
2022-12-25T21:33:48.497Z,18.13
2022-12-25T21:36:15.708Z,18.40
2022-12-25T21:38:43.165Z,18.83
2022-12-25T21:41:11.529Z,18.23
2022-12-25T21:43:42.490Z,18.27
2022-12-25T21:46:11.195Z,17.93
2022-12-25T21:48:38.783Z,17.87
2022-12-25T21:51:26.325Z,18.80
2022-12-25T21:53:53.733Z,18.37
2022-12-25T21:56:20.958Z,18.87
2022-12-25T21:58:48.154Z,19.07
2022-12-25T22:01:16.843Z,18.40
2022-12-25T22:03:46.213Z,18.20
2022-12-25T22:06:32.491Z,19.07
2022-12-25T22:09:00.003Z,18.47
2022-12-25T22:11:46.595Z,18.67
2022-12-25T22:14:51.585Z,17.67
2022-12-25T22:17:45.541Z,16.87
2022-12-25T22:20:15.335Z,17.80
2022-12-25T22:22:42.789Z,17.73
2022-12-25T22:25:10.826Z,16.57
2022-12-25T22:27:39.207Z,16.50
2022-12-25T22:30:08.131Z,17.00
2022-12-25T22:32:38.055Z,16.87
2022-12-25T22:35:05.506Z,16.70
2022-12-25T22:37:32.680Z,16.60
2022-12-25T22:40:02.365Z,16.17
2022-12-25T22:42:29.961Z,15.77
2022-12-25T22:44:57.835Z,15.03
2022-12-25T22:47:25.156Z,16.17
2022-12-25T22:49:52.368Z,16.07
2022-12-25T22:52:19.904Z,15.43
2022-12-25T22:54:47.223Z,13.97
2022-12-25T22:57:15.062Z,14.23
2022-12-25T22:59:42.392Z,14.67
2022-12-25T23:02:09.733Z,14.50
2022-12-25T23:04:37.031Z,14.40
2022-12-25T23:07:04.235Z,14.33
2022-12-25T23:09:31.534Z,13.47
2022-12-25T23:12:00.398Z,13.57
2022-12-25T23:14:40.358Z,11.73
2022-12-25T23:17:29.197Z,12.63
2022-12-25T23:20:15.859Z,12.40
2022-12-25T23:23:03.000Z,13.80
2022-12-25T23:25:49.401Z,13.23
2022-12-25T23:28:36.830Z,12.40
2022-12-25T23:31:04.429Z,13.50
2022-12-25T23:33:31.770Z,11.50
2022-12-25T23:35:59.005Z,11.93
2022-12-25T23:38:26.333Z,11.97
2022-12-25T23:40:53.515Z,12.00
2022-12-25T23:43:20.665Z,11.90
2022-12-25T23:45:48.018Z,11.53
2022-12-25T23:48:15.171Z,11.07
2022-12-25T23:50:42.459Z,10.90
2022-12-25T23:53:10.969Z,10.73
2022-12-25T23:55:38.254Z,12.17
2022-12-25T23:58:05.641Z,10.67
